EGLC

London City Airport

London, United Kingdom
TAF EGLC 251405Z 2515/2521 VRB05KT CAVOK BECMG 2518/2521 10010KT
Issued Valid From Valid To
Jun-25 @ 14:05 UTC
(an hour ago)
Jun-25 @ 15:00 UTC
(29 minutes ago)
Jun-25 @ 21:00 UTC
(in 6 hours)
Jun-25 @ 15:00 to Jun-25 @ 18:00
TAF EGLC 251405Z 2515/2521 VRB05KT CAVOK
Wind Visibility Clouds Conditions
Variable at 5 knots 10,000+ meters
  • No significant clouds
Becoming Jun-25 @ 18:00 to Jun-25 @ 21:00
BECMG 2518/2521 10010KT
Wind Visibility Clouds Conditions
100° at 10 knots 10,000+ meters
  • No significant clouds
TAF EGLC 251405Z 2515/2521 VRB05KT CAVOK BECMG 2518/2521 10010KT
Issued Jun-25 @ 14:05 UTC
(an hour ago)
Valid From Jun-25 @ 15:00 UTC
(29 minutes ago)
Valid To Jun-25 @ 21:00 UTC
(in 6 hours)
Jun-25 @ 15:00 - Jun-25 @ 18:00
Wind Visibility
Variable at 5 knots 10,000+ meters
Clouds
  • No significant clouds
Conditions
Becoming Jun-25 @ 18:00 - Jun-25 @ 21:00
Wind Visibility
100° at 10 knots 10,000+ meters
Clouds
  • No significant clouds
Conditions